• Join FlightAware (Why Join?)
  • Login
  • US Flag 
12:25AM EDT


 

Airport Tracker/Info


-or-


 

Live Flight TrackerFlight Track Log ✈ TCF3494 ✈ 15-Sep-2013 ✈ KDEN - KSLC

Flight Track Log - Related Links

Times and Time Zones

All times are in EDT time to prevent confusion due to time zone crossing. See the TCF3494 flight status page for this flight to view local times or setup timezone preferences in your user account.

Time Position Orientation Groundspeed Altitude Reporting Facility
EDT Latitude Longitude Course Direction KTS MPH feet Rate Location/Type
10:27AM 39.8500 -104.7667 269° West 184 212 7,000  Level Denver TRACON
10:28AM 39.8500 -104.8500 270° West 250 288 8,700 1,920 Climbing Denver TRACON
10:29AM 39.9326 -105.1214 275° West  Level Estimated
10:29AM 39.8667 -104.9500 282° West 281 323 10,900  Level Denver TRACON
10:30AM 39.9331 -105.2741 270° West  Level FlightAware Approximate
10:30AM 39.8833 -105.0500 282° West 307 353 13,200  Level Denver TRACON
10:31AM 39.9566 -105.4236 275° West  Level Estimated
10:31AM 39.8992 -105.1753 279° West 313 360 15,300  Level Denver Center
10:32AM 39.9544 -105.5763 269° West  Level FlightAware Approximate
10:32AM 39.9161 -105.2989 280° West 346 398 16,900  Level Denver Center
10:33AM 39.9267 -105.4361 276° West 354 407 18,800 1,560 Climbing Denver Center
10:34AM 39.9511 -105.5656 284° West 370 426 20,200 1,380 Climbing Denver Center
10:35AM 39.9739 -105.7103 282° West 380 437 21,700 1,500 Climbing Denver Center
10:36AM 39.9714 -105.8483 269° West 382 440 23,300 1,320 Climbing Denver Center
10:37AM 39.9775 -105.9903 273° West 392 451 24,500 1,200 Climbing Denver Center
10:38AM 39.9872 -106.1358 275° West 403 464 25,900 1,380 Climbing Denver Center
10:39AM 39.9944 -106.2842 274° West 409 471 27,400 960 Climbing Denver Center
10:40AM 40.0033 -106.4636 274° West 414 476 28,000 240 Climbing Denver Center
10:42AM 40.0103 -106.6061 274° West 413 475 28,000  Level Denver Center
10:43AM 40.0175 -106.7497 274° West 414 476 28,000  Level Denver Center
10:44AM 40.0253 -106.9172 274° West 413 475 28,000  Level Denver Center
10:45AM 40.0322 -107.0611 274° West 415 478 28,000  Level Denver Center
10:46AM 40.0400 -107.2292 274° West 417 480 28,000  Level Denver Center
10:47AM 40.0450 -107.3750 273° West 420 483 28,000  Level Denver Center
10:48AM 40.0528 -107.5456 273° West 422 486 28,000  Level Denver Center
10:49AM 40.0581 -107.6919 273° West 422 486 28,000  Level Denver Center
10:50AM 40.0658 -107.8628 273° West 424 488 28,000  Level Denver Center
10:51AM 40.0717 -108.0119 273° West 428 493 28,000  Level Denver Center
10:52AM 40.0794 -108.1844 273° West 428 493 28,000  Level Denver Center
10:53AM 40.0858 -108.3311 273° West 426 490 28,000  Level Denver Center
10:54AM 40.0931 -108.5008 273° West 422 486 28,000  Level Denver Center
10:55AM 40.0992 -108.6456 273° West 422 486 28,000  Level Denver Center
10:56AM 40.1061 -108.8150 273° West 422 486 28,000  Level Denver Center
10:57AM 40.1117 -108.9594 273° West 420 483 28,000  Level Denver Center
10:58AM 40.1175 -109.1269 273° West 416 479 28,000  Level Denver Center
10:59AM 40.1217 -109.2492 273° West 422 486 28,000  Level Salt Lake Center
11:00AM 40.1267 -109.3942 273° West 420 483 28,000  Level Salt Lake Center
11:01AM 40.1322 -109.5636 273° West 419 482 28,000  Level Salt Lake Center
11:02AM 40.1367 -109.7083 272° West 418 481 28,000  Level Salt Lake Center
11:03AM 40.1411 -109.8764 272° West 415 478 28,000  Level Salt Lake Center
11:04AM 40.1458 -110.0225 272° West 419 482 28,000  Level Salt Lake Center
11:05AM 40.1494 -110.1672 272° West 417 480 28,000  Level Salt Lake Center
11:06AM 40.1469 -110.3364 269° West 417 480 28,000  Level Salt Lake Center
11:07AM 40.1458 -110.4825 269° West 420 483 28,000  Level Salt Lake Center
11:08AM 40.1442 -110.6503 269° West 414 476 28,000  Level Salt Lake Center
11:09AM 40.1425 -110.7936 269° West 412 474 28,000 -180 Level Salt Lake Center
11:10AM 40.1406 -110.9381 269° West 417 480 27,700 -1,440 Descending Salt Lake Center
11:11AM 40.1383 -111.1150 269° West 408 470 25,100 -2,340 Descending Salt Lake Center
11:12AM 40.1369 -111.2567 269° West 392 451 23,000 -2,040 Descending Salt Lake Center
11:13AM 40.1339 -111.3936 268° West 379 436 21,000 -2,040 Descending Salt Lake Center
11:14AM 40.1272 -111.5119 266° West 373 429 19,400 -1,860 Descending Salt Lake Center
11:14AM 40.1314 -111.5275 289° West 368 423 19,100 -660 Descending Salt Lake Center
11:15AM 40.1683 -111.6411 293° West 363 418 18,700 -540 Descending Salt Lake Center
11:15AM 40.1772 -111.6406 North 360 414 18,600 -1,020 Descending Salt Lake Center
11:16AM 40.2506 -111.7172 321° Northwest 363 418 17,700 -1,020 Descending Salt Lake Center
11:16AM 40.2600 -111.7178 357° North 368 423 17,600 -1,320 Descending Salt Lake Center
11:17AM 40.3311 -111.7967 320° Northwest 356 410 16,400 -1,260 Descending Salt Lake Center
11:17AM 40.3403 -111.7961 North 358 412 16,300 -1,140 Descending Salt Lake Center
11:18AM 40.4186 -111.8706 324° Northwest 349 402 15,000 -1,560 Descending Salt Lake Center
11:19AM 40.4842 -111.9389 322° Northwest 345 397 13,700 -1,680 Descending Salt Lake Center
11:19AM 40.5111 -111.9597 330° Northwest 342 394 13,300 -1,020 Descending Salt Lake Center
11:20AM 40.5617 -112.0144 321° Northwest 341 392 12,700 -1,020 Descending Salt Lake Center
11:20AM 40.5878 -112.0336 331° Northwest 342 394 12,300 -1,200 Descending Salt Lake Center
11:21AM 40.6317 -112.0756 324° Northwest 340 391 11,600 -1,200 Descending Salt Lake Center
11:22AM 40.6728 -112.0828 352° North 341 392 11,100 -600 Descending Salt Lake Center
11:22AM 40.7253 -112.0919 352° North 341 392 11,000 -120 Descending Salt Lake Center
11:23AM 40.7650 -112.0931 359° North 327 376 11,000 -240 Level Salt Lake Center
11:23AM 40.8092 -112.1031 350° North 297 342 10,800 -600 Descending Salt Lake Center
11:24AM 40.8411 -112.1036 359° North 277 319 10,400 -1,380 Descending Salt Lake Center
11:24AM 40.8883 -112.1103 354° North 262 302 9,300 -1,560 Descending Salt Lake Center
11:25AM 40.9125 -112.1108 359° North 257 296 8,800 -1,620 Descending Salt Lake Center
11:25AM 40.9408 -112.1039 10° North 258 297 8,200 -1,320 Descending Salt Lake Center
11:26AM 40.9536 -112.0600 69° East 229 264 7,500 -1,200 Descending Salt Lake Center
11:26AM 40.9439 -112.0319 115° Southeast 213 245 7,000 -1,200 Descending Salt Lake Center
11:27AM 40.9064 -112.0111 157° South 195 224 6,300 -960 Descending Salt Lake Center
11:27AM 40.8878 -112.0086 174° South 184 212 5,900 -1,080 Descending Salt Lake Center
11:28AM 40.8586 -112.0053 175° South 174 200 5,200 -1,140 Descending Salt Lake Center
11:28AM 40.8375 -112.0056 181° South 150 173 4,700 -720 Descending Salt Lake Center
11:29AM 40.8208 -112.0003 167° South 138 159 4,500 -420 Descending Salt Lake Center